sensor_id;sensor_type;location;lat;lon;timestamp;temperature;humidity
23445;DHT22;11895;48.738;9.320;2022-08-21T00:01:40;15.50;99.90
23445;DHT22;11895;48.738;9.320;2022-08-21T00:04:08;15.50;99.90
23445;DHT22;11895;48.738;9.320;2022-08-21T00:06:40;15.50;99.90
23445;DHT22;11895;48.738;9.320;2022-08-21T00:09:09;15.50;99.90
23445;DHT22;11895;48.738;9.320;2022-08-21T00:11:37;15.40;99.90
23445;DHT22;11895;48.738;9.320;2022-08-21T00:14:06;15.50;99.90
23445;DHT22;11895;48.738;9.320;2022-08-21T00:16:35;15.50;99.90
23445;DHT22;11895;48.738;9.320;2022-08-21T00:19:03;15.50;99.90
23445;DHT22;11895;48.738;9.320;2022-08-21T00:21:30;15.50;99.90
23445;DHT22;11895;48.738;9.320;2022-08-21T00:23:57;15.40;99.90
23445;DHT22;11895;48.738;9.320;2022-08-21T00:26:24;15.40;99.90
23445;DHT22;11895;48.738;9.320;2022-08-21T00:28:52;15.30;99.90
23445;DHT22;11895;48.738;9.320;2022-08-21T00:31:21;15.20;99.90
23445;DHT22;11895;48.738;9.320;2022-08-21T00:33:48;15.20;99.90
23445;DHT22;11895;48.738;9.320;2022-08-21T00:36:15;15.30;99.90
23445;DHT22;11895;48.738;9.320;2022-08-21T00:38:48;15.30;99.90
23445;DHT22;11895;48.738;9.320;2022-08-21T00:41:16;15.20;99.90
23445;DHT22;11895;48.738;9.320;2022-08-21T00:44:03;15.20;99.90
23445;DHT22;11895;48.738;9.320;2022-08-21T00:46:32;15.10;99.90
23445;DHT22;11895;48.738;9.320;2022-08-21T00:49:00;15.00;99.90
23445;DHT22;11895;48.738;9.320;2022-08-21T00:51:29;15.10;99.90
23445;DHT22;11895;48.738;9.320;2022-08-21T00:54:07;15.10;99.90
23445;DHT22;11895;48.738;9.320;2022-08-21T00:56:46;15.00;99.90
23445;DHT22;11895;48.738;9.320;2022-08-21T00:59:18;15.10;99.90
23445;DHT22;11895;48.738;9.320;2022-08-21T01:01:47;15.00;99.90
23445;DHT22;11895;48.738;9.320;2022-08-21T01:04:16;15.00;99.90
23445;DHT22;11895;48.738;9.320;2022-08-21T01:06:44;15.00;99.90
23445;DHT22;11895;48.738;9.320;2022-08-21T01:09:11;15.00;99.90
23445;DHT22;11895;48.738;9.320;2022-08-21T01:11:40;14.90;99.90
23445;DHT22;11895;48.738;9.320;2022-08-21T01:14:11;14.80;99.90
23445;DHT22;11895;48.738;9.320;2022-08-21T01:16:40;14.80;99.90
23445;DHT22;11895;48.738;9.320;2022-08-21T01:19:12;14.80;99.90
23445;DHT22;11895;48.738;9.320;2022-08-21T01:21:41;14.80;99.90
23445;DHT22;11895;48.738;9.320;2022-08-21T01:24:10;14.70;99.90
23445;DHT22;11895;48.738;9.320;2022-08-21T01:26:38;14.60;99.90
23445;DHT22;11895;48.738;9.320;2022-08-21T01:29:16;14.60;99.90
23445;DHT22;11895;48.738;9.320;2022-08-21T01:32:06;14.70;99.90
23445;DHT22;11895;48.738;9.320;2022-08-21T01:34:38;14.70;99.90
23445;DHT22;11895;48.738;9.320;2022-08-21T01:37:08;14.60;99.90
23445;DHT22;11895;48.738;9.320;2022-08-21T01:39:36;14.50;99.90
23445;DHT22;11895;48.738;9.320;2022-08-21T01:42:04;14.50;99.90
23445;DHT22;11895;48.738;9.320;2022-08-21T01:44:33;14.40;99.90
23445;DHT22;11895;48.738;9.320;2022-08-21T01:47:02;14.50;99.90
23445;DHT22;11895;48.738;9.320;2022-08-21T01:49:35;14.50;99.90
23445;DHT22;11895;48.738;9.320;2022-08-21T01:52:04;14.50;99.90
23445;DHT22;11895;48.738;9.320;2022-08-21T01:54:35;14.50;99.90
23445;DHT22;11895;48.738;9.320;2022-08-21T01:57:04;14.60;99.90
23445;DHT22;11895;48.738;9.320;2022-08-21T01:59:37;14.50;99.90
23445;DHT22;11895;48.738;9.320;2022-08-21T02:02:04;14.60;99.90
23445;DHT22;11895;48.738;9.320;2022-08-21T02:04:32;14.60;99.90
23445;DHT22;11895;48.738;9.320;2022-08-21T02:07:00;14.50;99.90
23445;DHT22;11895;48.738;9.320;2022-08-21T02:09:28;14.40;99.90
23445;DHT22;11895;48.738;9.320;2022-08-21T02:11:55;14.50;99.90
23445;DHT22;11895;48.738;9.320;2022-08-21T02:14:23;14.30;99.90
23445;DHT22;11895;48.738;9.320;2022-08-21T02:16:58;14.40;99.90
23445;DHT22;11895;48.738;9.320;2022-08-21T02:19:34;14.30;99.90
23445;DHT22;11895;48.738;9.320;2022-08-21T02:22:09;14.20;99.90
23445;DHT22;11895;48.738;9.320;2022-08-21T02:24:37;14.10;99.90
23445;DHT22;11895;48.738;9.320;2022-08-21T02:27:24;14.10;99.90
23445;DHT22;11895;48.738;9.320;2022-08-21T02:29:57;14.00;99.90
23445;DHT22;11895;48.738;9.320;2022-08-21T02:32:24;14.00;99.90
23445;DHT22;11895;48.738;9.320;2022-08-21T02:34:52;14.00;99.90
23445;DHT22;11895;48.738;9.320;2022-08-21T02:37:19;13.90;99.90
23445;DHT22;11895;48.738;9.320;2022-08-21T02:39:46;13.90;99.90
23445;DHT22;11895;48.738;9.320;2022-08-21T02:42:13;13.90;99.90
23445;DHT22;11895;48.738;9.320;2022-08-21T02:44:41;13.90;99.90
23445;DHT22;11895;48.738;9.320;2022-08-21T02:47:08;13.90;99.90
23445;DHT22;11895;48.738;9.320;2022-08-21T02:49:35;14.10;99.90
23445;DHT22;11895;48.738;9.320;2022-08-21T02:54:32;13.90;99.90
23445;DHT22;11895;48.738;9.320;2022-08-21T02:56:59;13.80;99.90
23445;DHT22;11895;48.738;9.320;2022-08-21T02:59:26;13.80;99.90
23445;DHT22;11895;48.738;9.320;2022-08-21T03:01:53;13.70;99.90
23445;DHT22;11895;48.738;9.320;2022-08-21T03:04:22;13.70;99.90
23445;DHT22;11895;48.738;9.320;2022-08-21T03:06:49;13.70;99.90
23445;DHT22;11895;48.738;9.320;2022-08-21T03:09:16;13.70;99.90
23445;DHT22;11895;48.738;9.320;2022-08-21T03:11:43;13.50;99.90
23445;DHT22;11895;48.738;9.320;2022-08-21T03:14:10;13.50;99.90
23445;DHT22;11895;48.738;9.320;2022-08-21T03:16:37;13.60;99.90
23445;DHT22;11895;48.738;9.320;2022-08-21T03:19:04;13.50;99.90
23445;DHT22;11895;48.738;9.320;2022-08-21T03:21:32;13.50;99.90
23445;DHT22;11895;48.738;9.320;2022-08-21T03:23:59;13.50;99.90
23445;DHT22;11895;48.738;9.320;2022-08-21T03:26:30;13.50;99.90
23445;DHT22;11895;48.738;9.320;2022-08-21T03:28:58;13.50;99.90
23445;DHT22;11895;48.738;9.320;2022-08-21T03:31:25;13.60;99.90
23445;DHT22;11895;48.738;9.320;2022-08-21T03:33:57;13.60;99.90
23445;DHT22;11895;48.738;9.320;2022-08-21T03:36:25;13.60;99.90
23445;DHT22;11895;48.738;9.320;2022-08-21T03:38:53;13.50;99.90
23445;DHT22;11895;48.738;9.320;2022-08-21T03:41:20;13.40;99.90
23445;DHT22;11895;48.738;9.320;2022-08-21T03:43:47;13.40;99.90
23445;DHT22;11895;48.738;9.320;2022-08-21T03:46:14;13.30;99.90
23445;DHT22;11895;48.738;9.320;2022-08-21T03:48:41;13.40;99.90
23445;DHT22;11895;48.738;9.320;2022-08-21T03:51:08;13.40;99.90
23445;DHT22;11895;48.738;9.320;2022-08-21T03:53:35;13.30;99.90
23445;DHT22;11895;48.738;9.320;2022-08-21T03:56:03;13.40;99.90
23445;DHT22;11895;48.738;9.320;2022-08-21T03:58:32;13.30;99.90
23445;DHT22;11895;48.738;9.320;2022-08-21T04:01:00;13.20;99.90
23445;DHT22;11895;48.738;9.320;2022-08-21T04:03:29;13.20;99.90
23445;DHT22;11895;48.738;9.320;2022-08-21T04:05:56;13.20;99.90
23445;DHT22;11895;48.738;9.320;2022-08-21T04:08:23;13.20;99.90
23445;DHT22;11895;48.738;9.320;2022-08-21T04:10:52;13.30;99.90
23445;DHT22;11895;48.738;9.320;2022-08-21T04:13:22;13.20;99.90
23445;DHT22;11895;48.738;9.320;2022-08-21T04:15:50;13.10;99.90
23445;DHT22;11895;48.738;9.320;2022-08-21T04:18:17;13.10;99.90
23445;DHT22;11895;48.738;9.320;2022-08-21T04:20:45;13.10;99.90
23445;DHT22;11895;48.738;9.320;2022-08-21T04:23:17;13.00;99.90
23445;DHT22;11895;48.738;9.320;2022-08-21T04:25:51;13.10;99.90
23445;DHT22;11895;48.738;9.320;2022-08-21T04:28:20;13.10;99.90
23445;DHT22;11895;48.738;9.320;2022-08-21T04:30:56;13.10;99.90
23445;DHT22;11895;48.738;9.320;2022-08-21T04:33:23;13.10;99.90
23445;DHT22;11895;48.738;9.320;2022-08-21T04:35:51;13.10;99.90
23445;DHT22;11895;48.738;9.320;2022-08-21T04:38:18;13.10;99.90
23445;DHT22;11895;48.738;9.320;2022-08-21T04:40:46;13.10;99.90
23445;DHT22;11895;48.738;9.320;2022-08-21T04:43:15;13.10;99.90
23445;DHT22;11895;48.738;9.320;2022-08-21T04:45:46;13.10;99.90
23445;DHT22;11895;48.738;9.320;2022-08-21T04:48:15;13.10;99.90
23445;DHT22;11895;48.738;9.320;2022-08-21T04:50:50;13.10;99.90
23445;DHT22;11895;48.738;9.320;2022-08-21T04:53:26;13.20;99.90
23445;DHT22;11895;48.738;9.320;2022-08-21T04:56:13;13.30;99.90
23445;DHT22;11895;48.738;9.320;2022-08-21T04:58:47;13.30;99.90
23445;DHT22;11895;48.738;9.320;2022-08-21T05:01:19;13.30;99.90
23445;DHT22;11895;48.738;9.320;2022-08-21T05:03:49;13.40;99.90
23445;DHT22;11895;48.738;9.320;2022-08-21T05:06:24;13.40;99.90
23445;DHT22;11895;48.738;9.320;2022-08-21T05:08:52;13.40;99.90
23445;DHT22;11895;48.738;9.320;2022-08-21T05:11:28;13.40;99.90
23445;DHT22;11895;48.738;9.320;2022-08-21T05:13:58;13.50;99.90
23445;DHT22;11895;48.738;9.320;2022-08-21T05:16:25;13.60;99.90
23445;DHT22;11895;48.738;9.320;2022-08-21T05:19:04;13.70;99.90
23445;DHT22;11895;48.738;9.320;2022-08-21T05:21:33;13.80;99.90
23445;DHT22;11895;48.738;9.320;2022-08-21T05:24:02;14.00;99.90
23445;DHT22;11895;48.738;9.320;2022-08-21T05:26:30;14.10;99.90
23445;DHT22;11895;48.738;9.320;2022-08-21T05:28:58;14.20;99.90
23445;DHT22;11895;48.738;9.320;2022-08-21T05:31:25;14.30;99.90
23445;DHT22;11895;48.738;9.320;2022-08-21T05:33:52;14.40;99.90
23445;DHT22;11895;48.738;9.320;2022-08-21T05:36:21;14.40;99.90
23445;DHT22;11895;48.738;9.320;2022-08-21T05:38:49;14.40;99.90
23445;DHT22;11895;48.738;9.320;2022-08-21T05:41:16;14.50;99.90
23445;DHT22;11895;48.738;9.320;2022-08-21T05:43:44;14.70;99.90
23445;DHT22;11895;48.738;9.320;2022-08-21T05:46:11;14.80;99.90
23445;DHT22;11895;48.738;9.320;2022-08-21T05:48:38;14.80;99.90
23445;DHT22;11895;48.738;9.320;2022-08-21T05:51:09;14.80;99.90
23445;DHT22;11895;48.738;9.320;2022-08-21T05:53:39;14.80;99.90
23445;DHT22;11895;48.738;9.320;2022-08-21T05:56:09;14.80;99.90
23445;DHT22;11895;48.738;9.320;2022-08-21T05:58:37;14.90;99.90
23445;DHT22;11895;48.738;9.320;2022-08-21T06:01:05;15.10;99.90
23445;DHT22;11895;48.738;9.320;2022-08-21T06:03:34;15.10;99.90
23445;DHT22;11895;48.738;9.320;2022-08-21T06:06:05;15.20;99.90
23445;DHT22;11895;48.738;9.320;2022-08-21T06:08:32;15.30;99.90
23445;DHT22;11895;48.738;9.320;2022-08-21T06:11:01;15.40;99.90
23445;DHT22;11895;48.738;9.320;2022-08-21T06:13:30;15.60;99.90
23445;DHT22;11895;48.738;9.320;2022-08-21T06:18:42;15.90;99.90
23445;DHT22;11895;48.738;9.320;2022-08-21T06:21:11;16.10;99.90
23445;DHT22;11895;48.738;9.320;2022-08-21T06:23:40;16.10;99.90
23445;DHT22;11895;48.738;9.320;2022-08-21T06:26:09;16.20;99.90
23445;DHT22;11895;48.738;9.320;2022-08-21T06:28:53;16.20;99.90
23445;DHT22;11895;48.738;9.320;2022-08-21T06:31:33;16.40;99.90
23445;DHT22;11895;48.738;9.320;2022-08-21T06:34:11;16.40;99.90
23445;DHT22;11895;48.738;9.320;2022-08-21T06:36:52;16.60;99.90
23445;DHT22;11895;48.738;9.320;2022-08-21T06:39:35;16.60;99.90
23445;DHT22;11895;48.738;9.320;2022-08-21T06:44:56;16.90;99.90
23445;DHT22;11895;48.738;9.320;2022-08-21T06:47:23;17.00;99.90
23445;DHT22;11895;48.738;9.320;2022-08-21T06:49:51;17.20;99.90
23445;DHT22;11895;48.738;9.320;2022-08-21T06:52:19;17.40;99.90
23445;DHT22;11895;48.738;9.320;2022-08-21T06:54:46;17.60;99.90
23445;DHT22;11895;48.738;9.320;2022-08-21T06:57:18;17.70;99.90
23445;DHT22;11895;48.738;9.320;2022-08-21T06:59:55;17.80;99.90
23445;DHT22;11895;48.738;9.320;2022-08-21T07:02:39;17.90;99.90
23445;DHT22;11895;48.738;9.320;2022-08-21T07:05:07;17.90;99.90
23445;DHT22;11895;48.738;9.320;2022-08-21T07:15:47;18.40;99.90
23445;DHT22;11895;48.738;9.320;2022-08-21T08:10:41;20.70;99.90
23445;DHT22;11895;48.738;9.320;2022-08-21T08:13:10;20.80;99.90
23445;DHT22;11895;48.738;9.320;2022-08-21T08:19:01;21.10;99.90
23445;DHT22;11895;48.738;9.320;2022-08-21T08:21:29;21.30;99.90
23445;DHT22;11895;48.738;9.320;2022-08-21T08:24:00;21.40;99.90
23445;DHT22;11895;48.738;9.320;2022-08-21T08:26:45;21.50;99.90
23445;DHT22;11895;48.738;9.320;2022-08-21T08:29:20;21.60;99.90
23445;DHT22;11895;48.738;9.320;2022-08-21T08:31:48;21.70;99.90
23445;DHT22;11895;48.738;9.320;2022-08-21T08:34:17;21.80;99.90
23445;DHT22;11895;48.738;9.320;2022-08-21T08:36:51;21.90;99.90
23445;DHT22;11895;48.738;9.320;2022-08-21T08:39:19;22.10;99.90
23445;DHT22;11895;48.738;9.320;2022-08-21T08:42:04;22.30;99.90
23445;DHT22;11895;48.738;9.320;2022-08-21T08:44:58;22.40;99.90
23445;DHT22;11895;48.738;9.320;2022-08-21T08:47:38;22.30;99.90
23445;DHT22;11895;48.738;9.320;2022-08-21T08:52:57;22.30;99.90
23445;DHT22;11895;48.738;9.320;2022-08-21T08:55:33;22.60;99.90
23445;DHT22;11895;48.738;9.320;2022-08-21T08:58:04;22.70;99.90
23445;DHT22;11895;48.738;9.320;2022-08-21T09:00:32;22.80;99.90
23445;DHT22;11895;48.738;9.320;2022-08-21T09:03:00;23.00;99.90
23445;DHT22;11895;48.738;9.320;2022-08-21T09:05:50;23.00;99.90
23445;DHT22;11895;48.738;9.320;2022-08-21T09:12:01;23.00;99.90
23445;DHT22;11895;48.738;9.320;2022-08-21T09:14:47;23.10;99.90
23445;DHT22;11895;48.738;9.320;2022-08-21T09:18:10;23.20;99.90
23445;DHT22;11895;48.738;9.320;2022-08-21T09:23:33;23.30;99.90
23445;DHT22;11895;48.738;9.320;2022-08-21T09:26:18;23.40;99.90
23445;DHT22;11895;48.738;9.320;2022-08-21T09:28:51;23.60;99.90
23445;DHT22;11895;48.738;9.320;2022-08-21T09:34:05;23.80;99.90
23445;DHT22;11895;48.738;9.320;2022-08-21T09:39:10;24.20;99.90
23445;DHT22;11895;48.738;9.320;2022-08-21T09:41:40;24.40;99.90
23445;DHT22;11895;48.738;9.320;2022-08-21T09:44:08;24.60;99.90
23445;DHT22;11895;48.738;9.320;2022-08-21T09:46:35;24.70;99.90
23445;DHT22;11895;48.738;9.320;2022-08-21T09:49:03;24.80;99.90
23445;DHT22;11895;48.738;9.320;2022-08-21T09:51:34;24.80;99.90
23445;DHT22;11895;48.738;9.320;2022-08-21T09:59:46;25.00;99.90
23445;DHT22;11895;48.738;9.320;2022-08-21T10:02:35;25.00;99.90
23445;DHT22;11895;48.738;9.320;2022-08-21T10:07:36;25.20;99.90
23445;DHT22;11895;48.738;9.320;2022-08-21T10:10:06;25.50;99.90
23445;DHT22;11895;48.738;9.320;2022-08-21T10:12:50;25.60;99.70
23445;DHT22;11895;48.738;9.320;2022-08-21T10:15:45;25.80;99.80
23445;DHT22;11895;48.738;9.320;2022-08-21T10:18:40;26.00;99.40
23445;DHT22;11895;48.738;9.320;2022-08-21T10:21:17;26.10;98.30
23445;DHT22;11895;48.738;9.320;2022-08-21T10:29:45;26.20;97.60
23445;DHT22;11895;48.738;9.320;2022-08-21T10:35:51;26.40;96.50
23445;DHT22;11895;48.738;9.320;2022-08-21T10:38:42;26.50;96.90
23445;DHT22;11895;48.738;9.320;2022-08-21T10:47:12;27.10;94.20
23445;DHT22;11895;48.738;9.320;2022-08-21T10:55:51;27.40;90.80
23445;DHT22;11895;48.738;9.320;2022-08-21T10:58:31;27.40;90.60
23445;DHT22;11895;48.738;9.320;2022-08-21T11:01:12;27.40;91.20
23445;DHT22;11895;48.738;9.320;2022-08-21T11:03:51;27.50;90.90
23445;DHT22;11895;48.738;9.320;2022-08-21T11:06:34;27.80;91.70
23445;DHT22;11895;48.738;9.320;2022-08-21T11:09:12;27.90;90.90
23445;DHT22;11895;48.738;9.320;2022-08-21T11:11:52;28.00;90.20
23445;DHT22;11895;48.738;9.320;2022-08-21T11:18:15;28.10;90.50
23445;DHT22;11895;48.738;9.320;2022-08-21T11:39:26;28.40;84.80
23445;DHT22;11895;48.738;9.320;2022-08-21T11:42:29;28.10;88.80
23445;DHT22;11895;48.738;9.320;2022-08-21T12:01:26;29.00;81.70
23445;DHT22;11895;48.738;9.320;2022-08-21T12:07:38;28.90;81.90
23445;DHT22;11895;48.738;9.320;2022-08-21T12:10:18;29.80;80.00
23445;DHT22;11895;48.738;9.320;2022-08-21T12:13:05;31.00;77.10
23445;DHT22;11895;48.738;9.320;2022-08-21T12:15:40;32.20;73.90
23445;DHT22;11895;48.738;9.320;2022-08-21T12:27:21;36.30;65.50
23445;DHT22;11895;48.738;9.320;2022-08-21T12:29:58;37.30;62.30
23445;DHT22;11895;48.738;9.320;2022-08-21T12:32:42;38.40;59.40
23445;DHT22;11895;48.738;9.320;2022-08-21T12:35:21;39.30;57.40
23445;DHT22;11895;48.738;9.320;2022-08-21T12:37:57;40.20;56.20
23445;DHT22;11895;48.738;9.320;2022-08-21T12:40:37;40.90;53.20
23445;DHT22;11895;48.738;9.320;2022-08-21T12:43:13;41.30;51.70
23445;DHT22;11895;48.738;9.320;2022-08-21T12:45:48;40.40;52.20
23445;DHT22;11895;48.738;9.320;2022-08-21T12:48:26;39.20;52.40
23445;DHT22;11895;48.738;9.320;2022-08-21T12:51:10;39.50;53.00
23445;DHT22;11895;48.738;9.320;2022-08-21T12:53:43;39.40;50.40
23445;DHT22;11895;48.738;9.320;2022-08-21T12:56:21;39.30;51.10
23445;DHT22;11895;48.738;9.320;2022-08-21T12:58:56;39.50;51.50
23445;DHT22;11895;48.738;9.320;2022-08-21T13:04:08;41.10;49.10
23445;DHT22;11895;48.738;9.320;2022-08-21T13:06:43;41.90;48.20
23445;DHT22;11895;48.738;9.320;2022-08-21T13:09:15;41.20;44.20
23445;DHT22;11895;48.738;9.320;2022-08-21T13:11:47;39.40;45.10
23445;DHT22;11895;48.738;9.320;2022-08-21T13:17:22;38.90;45.10
23445;DHT22;11895;48.738;9.320;2022-08-21T13:20:27;38.10;45.40
23445;DHT22;11895;48.738;9.320;2022-08-21T13:22:51;37.90;47.90
23445;DHT22;11895;48.738;9.320;2022-08-21T13:25:20;39.50;48.10
23445;DHT22;11895;48.738;9.320;2022-08-21T13:27:58;40.80;45.20
23445;DHT22;11895;48.738;9.320;2022-08-21T13:30:41;42.20;45.00
23445;DHT22;11895;48.738;9.320;2022-08-21T13:33:14;42.30;39.00
23445;DHT22;11895;48.738;9.320;2022-08-21T13:35:50;40.40;41.50
23445;DHT22;11895;48.738;9.320;2022-08-21T13:38:28;40.30;42.20
23445;DHT22;11895;48.738;9.320;2022-08-21T13:41:01;39.60;44.60
23445;DHT22;11895;48.738;9.320;2022-08-21T13:43:44;39.90;43.70
23445;DHT22;11895;48.738;9.320;2022-08-21T13:46:14;39.70;44.10
23445;DHT22;11895;48.738;9.320;2022-08-21T13:48:44;39.30;43.30
23445;DHT22;11895;48.738;9.320;2022-08-21T13:51:11;39.90;42.30
23445;DHT22;11895;48.738;9.320;2022-08-21T13:59:11;41.60;42.20
23445;DHT22;11895;48.738;9.320;2022-08-21T14:01:46;42.60;42.10
23445;DHT22;11895;48.738;9.320;2022-08-21T14:07:29;43.80;41.50
23445;DHT22;11895;48.738;9.320;2022-08-21T14:10:22;43.80;39.20
23445;DHT22;11895;48.738;9.320;2022-08-21T14:12:56;42.10;39.70
23445;DHT22;11895;48.738;9.320;2022-08-21T14:15:30;41.70;41.50
23445;DHT22;11895;48.738;9.320;2022-08-21T14:18:14;42.00;40.30
23445;DHT22;11895;48.738;9.320;2022-08-21T14:20:44;42.70;40.80
23445;DHT22;11895;48.738;9.320;2022-08-21T14:23:25;42.90;41.00
23445;DHT22;11895;48.738;9.320;2022-08-21T14:25:53;43.40;40.30
23445;DHT22;11895;48.738;9.320;2022-08-21T14:28:32;43.90;40.30
23445;DHT22;11895;48.738;9.320;2022-08-21T14:31:27;44.40;39.10
23445;DHT22;11895;48.738;9.320;2022-08-21T14:33:58;45.00;39.50
23445;DHT22;11895;48.738;9.320;2022-08-21T14:36:26;45.30;39.20
23445;DHT22;11895;48.738;9.320;2022-08-21T14:38:53;45.30;37.50
23445;DHT22;11895;48.738;9.320;2022-08-21T14:41:22;45.10;38.60
23445;DHT22;11895;48.738;9.320;2022-08-21T14:43:52;44.20;38.70
23445;DHT22;11895;48.738;9.320;2022-08-21T14:46:32;44.40;40.00
23445;DHT22;11895;48.738;9.320;2022-08-21T14:49:04;44.40;39.30
23445;DHT22;11895;48.738;9.320;2022-08-21T14:51:32;44.60;39.60
23445;DHT22;11895;48.738;9.320;2022-08-21T14:53:59;44.60;38.10
23445;DHT22;11895;48.738;9.320;2022-08-21T14:56:26;44.40;38.30
23445;DHT22;11895;48.738;9.320;2022-08-21T14:58:54;44.60;38.40
23445;DHT22;11895;48.738;9.320;2022-08-21T15:01:30;44.60;38.80
23445;DHT22;11895;48.738;9.320;2022-08-21T15:04:02;44.00;38.00
23445;DHT22;11895;48.738;9.320;2022-08-21T15:06:30;44.00;39.70
23445;DHT22;11895;48.738;9.320;2022-08-21T15:08:58;44.20;38.70
23445;DHT22;11895;48.738;9.320;2022-08-21T15:11:25;44.40;38.70
23445;DHT22;11895;48.738;9.320;2022-08-21T15:14:09;43.70;39.40
23445;DHT22;11895;48.738;9.320;2022-08-21T15:16:45;44.00;39.50
23445;DHT22;11895;48.738;9.320;2022-08-21T15:19:14;44.40;39.10
23445;DHT22;11895;48.738;9.320;2022-08-21T15:21:41;44.40;37.80
23445;DHT22;11895;48.738;9.320;2022-08-21T15:24:09;44.50;38.20
23445;DHT22;11895;48.738;9.320;2022-08-21T15:26:37;44.40;37.80
23445;DHT22;11895;48.738;9.320;2022-08-21T15:29:04;44.50;38.80
23445;DHT22;11895;48.738;9.320;2022-08-21T15:31:33;44.10;38.50
23445;DHT22;11895;48.738;9.320;2022-08-21T15:34:02;44.10;38.00
23445;DHT22;11895;48.738;9.320;2022-08-21T15:36:30;44.30;38.00
23445;DHT22;11895;48.738;9.320;2022-08-21T15:38:57;44.60;38.20
23445;DHT22;11895;48.738;9.320;2022-08-21T15:41:24;44.90;37.10
23445;DHT22;11895;48.738;9.320;2022-08-21T15:43:51;45.10;37.80
23445;DHT22;11895;48.738;9.320;2022-08-21T15:46:20;45.20;37.70
23445;DHT22;11895;48.738;9.320;2022-08-21T15:48:47;45.40;37.40
23445;DHT22;11895;48.738;9.320;2022-08-21T15:51:16;45.30;36.20
23445;DHT22;11895;48.738;9.320;2022-08-21T15:53:44;44.60;37.00
23445;DHT22;11895;48.738;9.320;2022-08-21T15:56:17;44.40;37.90
23445;DHT22;11895;48.738;9.320;2022-08-21T15:59:49;44.30;38.50
23445;DHT22;11895;48.738;9.320;2022-08-21T16:02:22;44.40;37.60
23445;DHT22;11895;48.738;9.320;2022-08-21T16:04:53;44.50;38.80
23445;DHT22;11895;48.738;9.320;2022-08-21T16:07:21;44.40;38.40
23445;DHT22;11895;48.738;9.320;2022-08-21T16:09:49;44.40;38.60
23445;DHT22;11895;48.738;9.320;2022-08-21T16:12:42;44.30;38.80
23445;DHT22;11895;48.738;9.320;2022-08-21T16:15:15;44.00;39.00
23445;DHT22;11895;48.738;9.320;2022-08-21T16:17:46;43.30;38.90
23445;DHT22;11895;48.738;9.320;2022-08-21T16:20:18;42.20;40.00
23445;DHT22;11895;48.738;9.320;2022-08-21T16:22:53;41.20;41.80
23445;DHT22;11895;48.738;9.320;2022-08-21T16:25:23;39.90;42.40
23445;DHT22;11895;48.738;9.320;2022-08-21T16:27:52;38.70;44.10
23445;DHT22;11895;48.738;9.320;2022-08-21T16:30:26;37.60;44.50
23445;DHT22;11895;48.738;9.320;2022-08-21T16:32:55;36.60;44.70
23445;DHT22;11895;48.738;9.320;2022-08-21T16:35:23;35.90;45.80
23445;DHT22;11895;48.738;9.320;2022-08-21T16:37:51;35.10;46.00
23445;DHT22;11895;48.738;9.320;2022-08-21T16:40:19;34.50;46.30
23445;DHT22;11895;48.738;9.320;2022-08-21T16:42:54;33.70;48.20
23445;DHT22;11895;48.738;9.320;2022-08-21T16:45:22;33.20;50.60
23445;DHT22;11895;48.738;9.320;2022-08-21T16:47:49;32.70;49.80
23445;DHT22;11895;48.738;9.320;2022-08-21T16:50:19;32.30;50.60
23445;DHT22;11895;48.738;9.320;2022-08-21T16:52:49;32.10;50.00
23445;DHT22;11895;48.738;9.320;2022-08-21T16:55:17;31.70;52.90
23445;DHT22;11895;48.738;9.320;2022-08-21T16:57:45;31.30;53.20
23445;DHT22;11895;48.738;9.320;2022-08-21T17:00:13;31.20;52.50
23445;DHT22;11895;48.738;9.320;2022-08-21T17:02:42;31.00;54.10
23445;DHT22;11895;48.738;9.320;2022-08-21T17:05:13;30.70;54.80
23445;DHT22;11895;48.738;9.320;2022-08-21T17:07:42;30.60;53.60
23445;DHT22;11895;48.738;9.320;2022-08-21T17:10:11;30.40;54.30
23445;DHT22;11895;48.738;9.320;2022-08-21T17:12:42;30.30;54.10
23445;DHT22;11895;48.738;9.320;2022-08-21T17:15:19;30.10;56.10
23445;DHT22;11895;48.738;9.320;2022-08-21T17:18:23;30.00;55.40
23445;DHT22;11895;48.738;9.320;2022-08-21T17:20:51;29.80;55.90
23445;DHT22;11895;48.738;9.320;2022-08-21T17:23:19;29.60;53.90
23445;DHT22;11895;48.738;9.320;2022-08-21T17:25:49;29.50;54.60
23445;DHT22;11895;48.738;9.320;2022-08-21T17:28:23;29.40;56.00
23445;DHT22;11895;48.738;9.320;2022-08-21T17:30:54;29.20;57.60
23445;DHT22;11895;48.738;9.320;2022-08-21T17:33:24;29.00;57.00
23445;DHT22;11895;48.738;9.320;2022-08-21T17:35:54;28.90;58.20
23445;DHT22;11895;48.738;9.320;2022-08-21T17:38:21;28.70;58.60
23445;DHT22;11895;48.738;9.320;2022-08-21T17:40:53;28.50;58.60
23445;DHT22;11895;48.738;9.320;2022-08-21T17:43:21;28.40;58.50
23445;DHT22;11895;48.738;9.320;2022-08-21T17:45:50;28.20;58.60
23445;DHT22;11895;48.738;9.320;2022-08-21T17:48:17;28.00;59.60
23445;DHT22;11895;48.738;9.320;2022-08-21T17:50:51;27.90;59.70
23445;DHT22;11895;48.738;9.320;2022-08-21T17:53:18;27.70;60.00
23445;DHT22;11895;48.738;9.320;2022-08-21T17:55:45;27.60;59.50
23445;DHT22;11895;48.738;9.320;2022-08-21T17:58:13;27.50;61.40
23445;DHT22;11895;48.738;9.320;2022-08-21T18:00:41;27.30;62.60
23445;DHT22;11895;48.738;9.320;2022-08-21T18:03:11;27.20;62.80
23445;DHT22;11895;48.738;9.320;2022-08-21T18:05:43;27.00;62.30
23445;DHT22;11895;48.738;9.320;2022-08-21T18:08:13;26.90;62.70
23445;DHT22;11895;48.738;9.320;2022-08-21T18:10:43;26.70;63.50
23445;DHT22;11895;48.738;9.320;2022-08-21T18:13:14;26.60;64.30
23445;DHT22;11895;48.738;9.320;2022-08-21T18:15:52;26.40;65.20
23445;DHT22;11895;48.738;9.320;2022-08-21T18:18:22;26.30;65.40
23445;DHT22;11895;48.738;9.320;2022-08-21T18:20:51;26.10;66.10
23445;DHT22;11895;48.738;9.320;2022-08-21T18:23:19;26.00;66.60
23445;DHT22;11895;48.738;9.320;2022-08-21T18:26:06;25.90;66.80
23445;DHT22;11895;48.738;9.320;2022-08-21T18:28:34;25.60;67.10
23445;DHT22;11895;48.738;9.320;2022-08-21T18:31:05;25.40;67.60
23445;DHT22;11895;48.738;9.320;2022-08-21T18:33:36;25.30;67.90
23445;DHT22;11895;48.738;9.320;2022-08-21T18:36:09;25.00;69.20
23445;DHT22;11895;48.738;9.320;2022-08-21T18:38:37;24.90;68.60
23445;DHT22;11895;48.738;9.320;2022-08-21T18:41:04;24.80;69.50
23445;DHT22;11895;48.738;9.320;2022-08-21T18:43:36;24.70;70.40
23445;DHT22;11895;48.738;9.320;2022-08-21T18:46:04;24.70;70.20
23445;DHT22;11895;48.738;9.320;2022-08-21T18:48:31;24.50;71.70
23445;DHT22;11895;48.738;9.320;2022-08-21T18:50:58;24.30;71.90
23445;DHT22;11895;48.738;9.320;2022-08-21T18:53:27;24.20;73.70
23445;DHT22;11895;48.738;9.320;2022-08-21T18:55:55;24.10;72.80
23445;DHT22;11895;48.738;9.320;2022-08-21T18:58:43;24.00;73.20
23445;DHT22;11895;48.738;9.320;2022-08-21T19:01:11;23.80;74.30
23445;DHT22;11895;48.738;9.320;2022-08-21T19:03:39;23.70;74.50